sensor_id;sensor_type;location;lat;lon;timestamp;pressure;altitude;pressure_sealevel;temperature;humidity
22333;BME280;11334;36.986;-121.936;2023-12-20T00:00:15;100386.72;;;18.03;100.00
22333;BME280;11334;36.986;-121.936;2023-12-20T00:02:42;100389.63;;;18.08;100.00
22333;BME280;11334;36.986;-121.936;2023-12-20T00:05:13;100386.94;;;18.14;100.00
22333;BME280;11334;36.986;-121.936;2023-12-20T00:07:40;100384.25;;;18.14;100.00
22333;BME280;11334;36.986;-121.936;2023-12-20T00:10:06;100398.66;;;18.20;100.00
22333;BME280;11334;36.986;-121.936;2023-12-20T00:12:33;100391.84;;;18.24;100.00
22333;BME280;11334;36.986;-121.936;2023-12-20T00:14:59;100389.97;;;18.24;100.00
22333;BME280;11334;36.986;-121.936;2023-12-20T00:17:25;100386.25;;;18.25;100.00
22333;BME280;11334;36.986;-121.936;2023-12-20T00:19:51;100391.19;;;18.28;100.00
22333;BME280;11334;36.986;-121.936;2023-12-20T00:22:17;100373.88;;;18.24;100.00
22333;BME280;11334;36.986;-121.936;2023-12-20T00:24:44;100372.63;;;18.27;100.00
22333;BME280;11334;36.986;-121.936;2023-12-20T00:27:10;100370.94;;;18.32;100.00
22333;BME280;11334;36.986;-121.936;2023-12-20T00:29:36;100373.44;;;18.27;100.00
22333;BME280;11334;36.986;-121.936;2023-12-20T00:32:02;100356.81;;;18.19;100.00
22333;BME280;11334;36.986;-121.936;2023-12-20T00:34:29;100368.53;;;18.18;100.00
22333;BME280;11334;36.986;-121.936;2023-12-20T00:36:55;100362.78;;;18.14;100.00
22333;BME280;11334;36.986;-121.936;2023-12-20T00:39:21;100363.44;;;18.10;100.00
22333;BME280;11334;36.986;-121.936;2023-12-20T00:41:47;100357.88;;;18.05;100.00
22333;BME280;11334;36.986;-121.936;2023-12-20T00:44:13;100363.22;;;17.99;100.00
22333;BME280;11334;36.986;-121.936;2023-12-20T00:46:40;100360.97;;;17.96;100.00
22333;BME280;11334;36.986;-121.936;2023-12-20T00:49:06;100358.75;;;17.93;100.00
22333;BME280;11334;36.986;-121.936;2023-12-20T00:51:32;100333.44;;;17.82;100.00
22333;BME280;11334;36.986;-121.936;2023-12-20T00:53:59;100353.38;;;17.86;100.00
22333;BME280;11334;36.986;-121.936;2023-12-20T00:56:25;100355.47;;;17.84;100.00
22333;BME280;11334;36.986;-121.936;2023-12-20T00:58:51;100352.38;;;17.81;100.00
22333;BME280;11334;36.986;-121.936;2023-12-20T01:01:17;100352.00;;;17.77;100.00
22333;BME280;11334;36.986;-121.936;2023-12-20T01:03:43;100358.59;;;17.75;100.00
22333;BME280;11334;36.986;-121.936;2023-12-20T01:06:10;100356.13;;;17.73;100.00
22333;BME280;11334;36.986;-121.936;2023-12-20T01:08:37;100351.63;;;17.68;100.00
22333;BME280;11334;36.986;-121.936;2023-12-20T01:11:06;100348.56;;;17.64;100.00
22333;BME280;11334;36.986;-121.936;2023-12-20T01:13:33;100345.66;;;17.66;100.00
22333;BME280;11334;36.986;-121.936;2023-12-20T01:15:59;100343.00;;;17.59;100.00
22333;BME280;11334;36.986;-121.936;2023-12-20T01:18:25;100350.19;;;17.59;100.00
22333;BME280;11334;36.986;-121.936;2023-12-20T01:20:51;100334.16;;;17.46;100.00
22333;BME280;11334;36.986;-121.936;2023-12-20T01:23:17;100349.81;;;17.55;100.00
22333;BME280;11334;36.986;-121.936;2023-12-20T01:25:44;100349.19;;;17.53;100.00
22333;BME280;11334;36.986;-121.936;2023-12-20T01:28:13;100347.13;;;17.49;100.00
22333;BME280;11334;36.986;-121.936;2023-12-20T01:30:39;100352.09;;;17.45;100.00
22333;BME280;11334;36.986;-121.936;2023-12-20T01:33:05;100348.81;;;17.43;100.00
22333;BME280;11334;36.986;-121.936;2023-12-20T01:35:31;100351.91;;;17.47;100.00
22333;BME280;11334;36.986;-121.936;2023-12-20T01:37:57;100351.28;;;17.39;100.00
22333;BME280;11334;36.986;-121.936;2023-12-20T01:40:24;100349.84;;;17.42;100.00
22333;BME280;11334;36.986;-121.936;2023-12-20T01:43:00;100334.19;;;17.27;100.00
22333;BME280;11334;36.986;-121.936;2023-12-20T01:45:27;100347.59;;;17.40;100.00
22333;BME280;11334;36.986;-121.936;2023-12-20T01:47:55;100354.59;;;17.34;100.00
22333;BME280;11334;36.986;-121.936;2023-12-20T01:50:22;100355.00;;;17.38;100.00
22333;BME280;11334;36.986;-121.936;2023-12-20T01:52:48;100355.44;;;17.35;100.00
22333;BME280;11334;36.986;-121.936;2023-12-20T01:55:19;100355.00;;;17.38;100.00
22333;BME280;11334;36.986;-121.936;2023-12-20T01:57:46;100358.09;;;17.28;100.00
22333;BME280;11334;36.986;-121.936;2023-12-20T02:00:13;100357.50;;;17.33;100.00
22333;BME280;11334;36.986;-121.936;2023-12-20T02:02:40;100356.47;;;17.27;100.00
22333;BME280;11334;36.986;-121.936;2023-12-20T02:05:07;100348.03;;;17.30;100.00
22333;BME280;11334;36.986;-121.936;2023-12-20T02:07:34;100347.00;;;17.25;100.00
22333;BME280;11334;36.986;-121.936;2023-12-20T02:10:01;100340.41;;;17.21;100.00
22333;BME280;11334;36.986;-121.936;2023-12-20T02:12:27;100340.19;;;17.29;100.00
22333;BME280;11334;36.986;-121.936;2023-12-20T02:14:54;100344.91;;;17.27;100.00
22333;BME280;11334;36.986;-121.936;2023-12-20T02:17:20;100334.22;;;17.20;100.00
22333;BME280;11334;36.986;-121.936;2023-12-20T02:19:46;100343.47;;;17.31;100.00
22333;BME280;11334;36.986;-121.936;2023-12-20T02:22:12;100337.06;;;17.32;100.00
22333;BME280;11334;36.986;-121.936;2023-12-20T02:24:39;100337.53;;;17.22;100.00
22333;BME280;11334;36.986;-121.936;2023-12-20T02:27:06;100335.06;;;17.27;100.00
22333;BME280;11334;36.986;-121.936;2023-12-20T02:29:36;100333.00;;;17.23;100.00
22333;BME280;11334;36.986;-121.936;2023-12-20T02:32:02;100326.19;;;17.14;100.00
22333;BME280;11334;36.986;-121.936;2023-12-20T02:34:29;100338.16;;;17.05;100.00
22333;BME280;11334;36.986;-121.936;2023-12-20T02:36:55;100299.44;;;16.88;100.00
22333;BME280;11334;36.986;-121.936;2023-12-20T02:39:22;100333.19;;;17.02;100.00
22333;BME280;11334;36.986;-121.936;2023-12-20T02:41:48;100328.44;;;17.04;100.00
22333;BME280;11334;36.986;-121.936;2023-12-20T02:44:15;100335.84;;;17.02;100.00
22333;BME280;11334;36.986;-121.936;2023-12-20T02:46:41;100329.91;;;17.00;100.00
22333;BME280;11334;36.986;-121.936;2023-12-20T02:49:07;100327.44;;;17.05;100.00
22333;BME280;11334;36.986;-121.936;2023-12-20T02:51:33;100322.28;;;16.97;100.00
22333;BME280;11334;36.986;-121.936;2023-12-20T02:53:59;100317.75;;;16.98;100.00
22333;BME280;11334;36.986;-121.936;2023-12-20T02:56:26;100315.09;;;16.91;100.00
22333;BME280;11334;36.986;-121.936;2023-12-20T02:58:52;100323.72;;;16.93;100.00
22333;BME280;11334;36.986;-121.936;2023-12-20T03:01:18;100312.59;;;16.96;100.00
22333;BME280;11334;36.986;-121.936;2023-12-20T03:03:44;100314.47;;;16.96;100.00
22333;BME280;11334;36.986;-121.936;2023-12-20T03:06:19;100308.50;;;16.94;100.00
22333;BME280;11334;36.986;-121.936;2023-12-20T03:08:45;100317.34;;;16.94;100.00
22333;BME280;11334;36.986;-121.936;2023-12-20T03:11:11;100311.78;;;16.96;100.00
22333;BME280;11334;36.986;-121.936;2023-12-20T03:13:37;100293.28;;;16.88;100.00
22333;BME280;11334;36.986;-121.936;2023-12-20T03:16:13;100316.13;;;16.90;100.00
22333;BME280;11334;36.986;-121.936;2023-12-20T03:18:41;100307.47;;;16.88;100.00
22333;BME280;11334;36.986;-121.936;2023-12-20T03:21:08;100315.28;;;16.90;100.00
22333;BME280;11334;36.986;-121.936;2023-12-20T03:23:34;100313.66;;;16.95;100.00
22333;BME280;11334;36.986;-121.936;2023-12-20T03:26:00;100318.59;;;16.98;100.00
22333;BME280;11334;36.986;-121.936;2023-12-20T03:28:27;100313.63;;;17.02;100.00
22333;BME280;11334;36.986;-121.936;2023-12-20T03:30:54;100325.38;;;17.01;100.00
22333;BME280;11334;36.986;-121.936;2023-12-20T03:33:20;100317.75;;;17.04;100.00
22333;BME280;11334;36.986;-121.936;2023-12-20T03:35:46;100323.09;;;17.04;100.00
22333;BME280;11334;36.986;-121.936;2023-12-20T03:38:12;100312.41;;;16.98;100.00
22333;BME280;11334;36.986;-121.936;2023-12-20T03:40:38;100317.34;;;17.01;100.00
22333;BME280;11334;36.986;-121.936;2023-12-20T03:43:05;100314.88;;;16.99;100.00
22333;BME280;11334;36.986;-121.936;2023-12-20T03:45:31;100331.34;;;17.03;100.00
22333;BME280;11334;36.986;-121.936;2023-12-20T03:47:57;100315.69;;;17.06;100.00
22333;BME280;11334;36.986;-121.936;2023-12-20T03:50:23;100325.56;;;17.06;100.00
22333;BME280;11334;36.986;-121.936;2023-12-20T03:52:49;100317.53;;;17.06;100.00
22333;BME280;11334;36.986;-121.936;2023-12-20T03:55:16;100334.63;;;17.11;100.00
22333;BME280;11334;36.986;-121.936;2023-12-20T03:57:42;100309.72;;;17.04;100.00
22333;BME280;11334;36.986;-121.936;2023-12-20T04:00:09;100327.22;;;17.07;100.00
22333;BME280;11334;36.986;-121.936;2023-12-20T04:02:39;100326.38;;;17.06;100.00
22333;BME280;11334;36.986;-121.936;2023-12-20T04:05:07;100327.44;;;17.05;100.00
22333;BME280;11334;36.986;-121.936;2023-12-20T04:07:33;100339.97;;;17.05;100.00
22333;BME280;11334;36.986;-121.936;2023-12-20T04:09:59;100334.22;;;17.08;100.00
22333;BME280;11334;36.986;-121.936;2023-12-20T04:12:29;100332.34;;;17.02;100.00
22333;BME280;11334;36.986;-121.936;2023-12-20T04:14:56;100327.84;;;16.96;100.00
22333;BME280;11334;36.986;-121.936;2023-12-20T04:17:23;100327.03;;;16.95;100.00
22333;BME280;11334;36.986;-121.936;2023-12-20T04:19:50;100332.59;;;17.00;100.00
22333;BME280;11334;36.986;-121.936;2023-12-20T04:22:19;100328.69;;;17.03;100.00
22333;BME280;11334;36.986;-121.936;2023-12-20T04:24:46;100338.97;;;17.06;100.00
22333;BME280;11334;36.986;-121.936;2023-12-20T04:27:12;100335.03;;;17.02;100.00
22333;BME280;11334;36.986;-121.936;2023-12-20T04:29:38;100343.50;;;17.05;100.00
22333;BME280;11334;36.986;-121.936;2023-12-20T04:32:05;100347.81;;;17.06;100.00
22333;BME280;11334;36.986;-121.936;2023-12-20T04:34:31;100339.78;;;17.06;100.00
22333;BME280;11334;36.986;-121.936;2023-12-20T04:36:57;100336.28;;;17.12;100.00
22333;BME280;11334;36.986;-121.936;2023-12-20T04:39:23;100344.09;;;17.07;100.00
22333;BME280;11334;36.986;-121.936;2023-12-20T04:41:49;100344.50;;;17.04;100.00
22333;BME280;11334;36.986;-121.936;2023-12-20T04:44:16;100344.31;;;17.06;100.00
22333;BME280;11334;36.986;-121.936;2023-12-20T04:46:42;100343.28;;;17.07;100.00
22333;BME280;11334;36.986;-121.936;2023-12-20T04:49:08;100336.91;;;17.01;100.00
22333;BME280;11334;36.986;-121.936;2023-12-20T04:51:34;100341.22;;;17.02;100.00
22333;BME280;11334;36.986;-121.936;2023-12-20T04:54:01;100355.84;;;17.06;100.00
22333;BME280;11334;36.986;-121.936;2023-12-20T04:56:28;100348.44;;;17.08;100.00
22333;BME280;11334;36.986;-121.936;2023-12-20T04:58:54;100331.53;;;16.95;100.00
22333;BME280;11334;36.986;-121.936;2023-12-20T05:01:21;100346.19;;;17.05;100.00
22333;BME280;11334;36.986;-121.936;2023-12-20T05:03:47;100334.44;;;16.93;100.00
22333;BME280;11334;36.986;-121.936;2023-12-20T05:06:13;100346.16;;;16.92;100.00
22333;BME280;11334;36.986;-121.936;2023-12-20T05:08:40;100353.38;;;16.98;100.00
22333;BME280;11334;36.986;-121.936;2023-12-20T05:11:06;100350.06;;;16.96;100.00
22333;BME280;11334;36.986;-121.936;2023-12-20T05:13:33;100344.91;;;16.95;100.00
22333;BME280;11334;36.986;-121.936;2023-12-20T05:15:59;100345.75;;;17.02;100.00
22333;BME280;11334;36.986;-121.936;2023-12-20T05:18:25;100348.66;;;17.00;100.00
22333;BME280;11334;36.986;-121.936;2023-12-20T05:20:51;100347.81;;;16.93;100.00
22333;BME280;11334;36.986;-121.936;2023-12-20T05:23:18;100354.63;;;16.96;100.00
22333;BME280;11334;36.986;-121.936;2023-12-20T05:25:46;100353.81;;;16.95;100.00
22333;BME280;11334;36.986;-121.936;2023-12-20T05:28:12;100354.63;;;16.96;100.00
22333;BME280;11334;36.986;-121.936;2023-12-20T05:30:38;100355.84;;;16.93;100.00
22333;BME280;11334;36.986;-121.936;2023-12-20T05:33:04;100348.44;;;16.95;100.00
22333;BME280;11334;36.986;-121.936;2023-12-20T05:35:30;100352.13;;;16.94;100.00
22333;BME280;11334;36.986;-121.936;2023-12-20T05:37:56;100345.78;;;16.95;100.00
22333;BME280;11334;36.986;-121.936;2023-12-20T05:40:23;100346.38;;;16.91;100.00
22333;BME280;11334;36.986;-121.936;2023-12-20T05:42:49;100342.88;;;16.90;100.00
22333;BME280;11334;36.986;-121.936;2023-12-20T05:45:15;100343.28;;;16.94;100.00
22333;BME280;11334;36.986;-121.936;2023-12-20T05:47:42;100331.34;;;16.83;100.00
22333;BME280;11334;36.986;-121.936;2023-12-20T05:50:08;100355.41;;;16.90;100.00
22333;BME280;11334;36.986;-121.936;2023-12-20T05:52:34;100344.53;;;16.91;100.00
22333;BME280;11334;36.986;-121.936;2023-12-20T05:55:01;100346.16;;;16.92;100.00
22333;BME280;11334;36.986;-121.936;2023-12-20T05:57:27;100342.25;;;16.88;100.00
22333;BME280;11334;36.986;-121.936;2023-12-20T05:59:53;100342.88;;;16.90;100.00
22333;BME280;11334;36.986;-121.936;2023-12-20T06:02:19;100344.53;;;16.91;100.00
22333;BME280;11334;36.986;-121.936;2023-12-20T06:04:46;100351.50;;;16.92;100.00
22333;BME280;11334;36.986;-121.936;2023-12-20T06:07:12;100351.94;;;16.89;100.00
22333;BME280;11334;36.986;-121.936;2023-12-20T06:09:39;100348.00;;;16.92;100.00
22333;BME280;11334;36.986;-121.936;2023-12-20T06:12:07;100337.53;;;16.90;100.00
22333;BME280;11334;36.986;-121.936;2023-12-20T06:14:34;100338.53;;;16.89;100.00
22333;BME280;11334;36.986;-121.936;2023-12-20T06:17:00;100336.91;;;16.88;100.00
22333;BME280;11334;36.986;-121.936;2023-12-20T06:19:27;100340.41;;;16.89;100.00
22333;BME280;11334;36.986;-121.936;2023-12-20T06:21:54;100336.28;;;16.86;100.00
22333;BME280;11334;36.986;-121.936;2023-12-20T06:24:20;100338.78;;;16.88;100.00
22333;BME280;11334;36.986;-121.936;2023-12-20T06:26:47;100328.25;;;16.86;100.00
22333;BME280;11334;36.986;-121.936;2023-12-20T06:29:13;100338.34;;;16.91;100.00
22333;BME280;11334;36.986;-121.936;2023-12-20T06:31:39;100327.25;;;16.81;100.00
22333;BME280;11334;36.986;-121.936;2023-12-20T06:34:05;100328.88;;;16.82;100.00
22333;BME280;11334;36.986;-121.936;2023-12-20T06:36:32;100318.19;;;16.76;100.00
22333;BME280;11334;36.986;-121.936;2023-12-20T06:38:58;100332.19;;;16.84;100.00
22333;BME280;11334;36.986;-121.936;2023-12-20T06:41:24;100320.66;;;16.83;100.00
22333;BME280;11334;36.986;-121.936;2023-12-20T06:43:50;100332.38;;;16.82;100.00
22333;BME280;11334;36.986;-121.936;2023-12-20T06:46:19;100316.31;;;16.82;100.00
22333;BME280;11334;36.986;-121.936;2023-12-20T06:48:45;100308.28;;;16.82;100.00
22333;BME280;11334;36.986;-121.936;2023-12-20T06:51:16;100314.47;;;16.83;100.00
22333;BME280;11334;36.986;-121.936;2023-12-20T06:53:43;100311.19;;;16.81;100.00
22333;BME280;11334;36.986;-121.936;2023-12-20T06:56:10;100294.50;;;16.73;100.00
22333;BME280;11334;36.986;-121.936;2023-12-20T06:58:37;100312.84;;;16.76;100.00
22333;BME280;11334;36.986;-121.936;2023-12-20T07:01:04;100300.69;;;16.73;100.00
22333;BME280;11334;36.986;-121.936;2023-12-20T07:03:31;100300.69;;;16.73;100.00
22333;BME280;11334;36.986;-121.936;2023-12-20T07:05:58;100300.06;;;16.77;100.00
22333;BME280;11334;36.986;-121.936;2023-12-20T07:08:24;100292.03;;;16.77;100.00
22333;BME280;11334;36.986;-121.936;2023-12-20T07:10:53;100278.44;;;16.73;100.00
22333;BME280;11334;36.986;-121.936;2023-12-20T07:13:19;100281.75;;;16.75;100.00
22333;BME280;11334;36.986;-121.936;2023-12-20T07:15:46;100280.31;;;16.78;100.00
22333;BME280;11334;36.986;-121.936;2023-12-20T07:18:12;100284.00;;;16.77;100.00
22333;BME280;11334;36.986;-121.936;2023-12-20T07:20:38;100280.09;;;16.74;100.00
22333;BME280;11334;36.986;-121.936;2023-12-20T07:23:04;100279.91;;;16.69;100.00
22333;BME280;11334;36.986;-121.936;2023-12-20T07:25:30;100282.38;;;16.64;100.00
22333;BME280;11334;36.986;-121.936;2023-12-20T07:28:00;100276.81;;;16.65;100.00
22333;BME280;11334;36.986;-121.936;2023-12-20T07:30:26;100269.19;;;16.62;100.00
22333;BME280;11334;36.986;-121.936;2023-12-20T07:32:52;100266.31;;;16.70;100.00
22333;BME280;11334;36.986;-121.936;2023-12-20T07:35:18;100267.53;;;16.68;100.00
22333;BME280;11334;36.986;-121.936;2023-12-20T07:37:44;100257.88;;;16.67;100.00
22333;BME280;11334;36.986;-121.936;2023-12-20T07:40:11;100266.53;;;16.69;100.00
22333;BME280;11334;36.986;-121.936;2023-12-20T07:42:37;100252.94;;;16.64;100.00
22333;BME280;11334;36.986;-121.936;2023-12-20T07:45:04;100263.66;;;16.64;100.00
22333;BME280;11334;36.986;-121.936;2023-12-20T07:47:30;100263.84;;;16.62;100.00
22333;BME280;11334;36.986;-121.936;2023-12-20T07:49:56;100257.06;;;16.60;100.00
22333;BME280;11334;36.986;-121.936;2023-12-20T07:52:23;100246.97;;;16.62;100.00
22333;BME280;11334;36.986;-121.936;2023-12-20T07:54:49;100251.94;;;16.58;100.00
22333;BME280;11334;36.986;-121.936;2023-12-20T07:57:15;100246.97;;;16.62;100.00
22333;BME280;11334;36.986;-121.936;2023-12-20T07:59:41;100228.03;;;16.57;100.00
22333;BME280;11334;36.986;-121.936;2023-12-20T08:02:08;100236.91;;;16.64;100.00
22333;BME280;11334;36.986;-121.936;2023-12-20T08:04:34;100240.38;;;16.64;100.00
22333;BME280;11334;36.986;-121.936;2023-12-20T08:07:00;100230.31;;;16.60;100.00
22333;BME280;11334;36.986;-121.936;2023-12-20T08:09:26;100229.50;;;16.59;100.00
22333;BME280;11334;36.986;-121.936;2023-12-20T08:11:53;100232.97;;;16.60;100.00
22333;BME280;11334;36.986;-121.936;2023-12-20T08:14:19;100228.25;;;16.62;100.00
22333;BME280;11334;36.986;-121.936;2023-12-20T08:16:45;100212.41;;;16.54;100.00
22333;BME280;11334;36.986;-121.936;2023-12-20T08:19:11;100218.78;;;16.59;100.00
22333;BME280;11334;36.986;-121.936;2023-12-20T08:21:38;100218.38;;;16.56;100.00
22333;BME280;11334;36.986;-121.936;2023-12-20T08:24:04;100220.22;;;16.55;100.00
22333;BME280;11334;36.986;-121.936;2023-12-20T08:26:30;100205.22;;;16.54;100.00
22333;BME280;11334;36.986;-121.936;2023-12-20T08:28:57;100209.53;;;16.55;100.00
22333;BME280;11334;36.986;-121.936;2023-12-20T08:31:24;100208.31;;;16.51;100.00
22333;BME280;11334;36.986;-121.936;2023-12-20T08:33:50;100205.22;;;16.48;100.00
22333;BME280;11334;36.986;-121.936;2023-12-20T08:36:17;100208.50;;;16.50;100.00
22333;BME280;11334;36.986;-121.936;2023-12-20T08:38:44;100213.66;;;16.51;100.00
22333;BME280;11334;36.986;-121.936;2023-12-20T08:41:10;100186.50;;;16.35;100.00
22333;BME280;11334;36.986;-121.936;2023-12-20T08:43:37;100207.69;;;16.49;100.00
22333;BME280;11334;36.986;-121.936;2023-12-20T08:46:06;100200.91;;;16.47;100.00
22333;BME280;11334;36.986;-121.936;2023-12-20T08:48:32;100212.00;;;16.50;100.00
22333;BME280;11334;36.986;-121.936;2023-12-20T08:50:58;100200.28;;;16.45;100.00
22333;BME280;11334;36.986;-121.936;2023-12-20T08:53:24;100207.28;;;16.46;100.00
22333;BME280;11334;36.986;-121.936;2023-12-20T08:55:50;100203.56;;;16.47;100.00
22333;BME280;11334;36.986;-121.936;2023-12-20T08:58:17;100198.41;;;16.45;100.00
22333;BME280;11334;36.986;-121.936;2023-12-20T09:00:43;100206.44;;;16.45;100.00
22333;BME280;11334;36.986;-121.936;2023-12-20T09:03:09;100202.75;;;16.46;100.00
22333;BME280;11334;36.986;-121.936;2023-12-20T09:05:35;100210.16;;;16.44;100.00
22333;BME280;11334;36.986;-121.936;2023-12-20T09:08:02;100200.69;;;16.42;100.00
22333;BME280;11334;36.986;-121.936;2023-12-20T09:10:28;100199.25;;;16.40;100.00
22333;BME280;11334;36.986;-121.936;2023-12-20T09:12:54;100206.88;;;16.36;100.00
22333;BME280;11334;36.986;-121.936;2023-12-20T09:15:26;100201.97;;;16.33;100.00
22333;BME280;11334;36.986;-121.936;2023-12-20T09:17:53;100220.25;;;16.36;100.00
22333;BME280;11334;36.986;-121.936;2023-12-20T09:20:19;100207.69;;;16.30;100.00
22333;BME280;11334;36.986;-121.936;2023-12-20T09:22:45;100214.91;;;16.36;100.00
22333;BME280;11334;36.986;-121.936;2023-12-20T09:25:13;100202.34;;;16.37;100.00
22333;BME280;11334;36.986;-121.936;2023-12-20T09:27:41;100204.41;;;16.35;100.00
22333;BME280;11334;36.986;-121.936;2023-12-20T09:30:07;100203.41;;;16.36;100.00
22333;BME280;11334;36.986;-121.936;2023-12-20T09:32:34;100207.28;;;16.40;100.00
22333;BME280;11334;36.986;-121.936;2023-12-20T09:35:01;100198.22;;;16.41;100.00
22333;BME280;11334;36.986;-121.936;2023-12-20T09:37:27;100203.56;;;16.41;100.00
22333;BME280;11334;36.986;-121.936;2023-12-20T09:39:54;100198.22;;;16.41;100.00
22333;BME280;11334;36.986;-121.936;2023-12-20T09:42:46;100200.50;;;16.44;100.00
22333;BME280;11334;36.986;-121.936;2023-12-20T09:45:15;100207.91;;;16.42;100.00
22333;BME280;11334;36.986;-121.936;2023-12-20T09:47:43;100210.56;;;16.42;100.00
22333;BME280;11334;36.986;-121.936;2023-12-20T09:50:11;100207.28;;;16.40;100.00
22333;BME280;11334;36.986;-121.936;2023-12-20T09:52:39;100202.34;;;16.43;100.00
22333;BME280;11334;36.986;-121.936;2023-12-20T09:55:06;100198.41;;;16.45;100.00
22333;BME280;11334;36.986;-121.936;2023-12-20T09:57:33;100205.63;;;16.45;100.00
22333;BME280;11334;36.986;-121.936;2023-12-20T09:59:59;100191.03;;;16.47;100.00
22333;BME280;11334;36.986;-121.936;2023-12-20T10:02:26;100194.31;;;16.43;100.00
22333;BME280;11334;36.986;-121.936;2023-12-20T10:04:54;100178.91;;;16.39;100.00
22333;BME280;11334;36.986;-121.936;2023-12-20T10:07:21;100205.84;;;16.50;100.00
22333;BME280;11334;36.986;-121.936;2023-12-20T10:09:48;100190.41;;;16.52;100.00
22333;BME280;11334;36.986;-121.936;2023-12-20T10:12:15;100190.41;;;16.52;100.00
22333;BME280;11334;36.986;-121.936;2023-12-20T10:14:41;100192.25;;;16.51;100.00
22333;BME280;11334;36.986;-121.936;2023-12-20T10:17:07;100191.84;;;16.48;100.00
22333;BME280;11334;36.986;-121.936;2023-12-20T10:19:34;100174.19;;;16.34;100.00
22333;BME280;11334;36.986;-121.936;2023-12-20T10:22:00;100182.19;;;16.47;100.00
22333;BME280;11334;36.986;-121.936;2023-12-20T10:24:28;100191.03;;;16.47;100.00
22333;BME280;11334;36.986;-121.936;2023-12-20T10:27:05;100181.16;;;16.42;100.00
22333;BME280;11334;36.986;-121.936;2023-12-20T10:29:35;100174.34;;;16.45;100.00
22333;BME280;11334;36.986;-121.936;2023-12-20T10:32:23;100184.84;;;16.47;100.00
22333;BME280;11334;36.986;-121.936;2023-12-20T10:34:50;100181.34;;;16.40;100.00
22333;BME280;11334;36.986;-121.936;2023-12-20T10:37:17;100200.50;;;16.37;100.00
22333;BME280;11334;36.986;-121.936;2023-12-20T10:39:43;100185.69;;;16.35;100.00
22333;BME280;11334;36.986;-121.936;2023-12-20T10:42:12;100182.00;;;16.36;100.00
22333;BME280;11334;36.986;-121.936;2023-12-20T10:44:38;100184.44;;;16.37;100.00
22333;BME280;11334;36.986;-121.936;2023-12-20T10:47:05;100188.59;;;16.33;100.00
22333;BME280;11334;36.986;-121.936;2023-12-20T10:49:36;100184.44;;;16.37;100.00
22333;BME280;11334;36.986;-121.936;2023-12-20T10:52:02;100186.50;;;16.35;100.00
22333;BME280;11334;36.986;-121.936;2023-12-20T10:54:30;100187.94;;;16.38;100.00
22333;BME280;11334;36.986;-121.936;2023-12-20T10:56:57;100175.81;;;16.35;100.00
22333;BME280;11334;36.986;-121.936;2023-12-20T10:59:24;100174.19;;;16.34;100.00
22333;BME280;11334;36.986;-121.936;2023-12-20T11:01:53;100170.25;;;16.30;100.00
22333;BME280;11334;36.986;-121.936;2023-12-20T11:04:25;100161.84;;;16.20;100.00
22333;BME280;11334;36.986;-121.936;2023-12-20T11:06:59;100164.13;;;16.23;100.00
22333;BME280;11334;36.986;-121.936;2023-12-20T11:09:38;100157.72;;;16.24;100.00
22333;BME280;11334;36.986;-121.936;2023-12-20T11:12:15;100157.53;;;16.26;100.00
22333;BME280;11334;36.986;-121.936;2023-12-20T11:17:11;100151.56;;;16.17;100.00
22333;BME280;11334;36.986;-121.936;2023-12-20T11:22:25;100159.19;;;16.14;100.00
22333;BME280;11334;36.986;-121.936;2023-12-20T11:24:53;100153.59;;;16.15;100.00
22333;BME280;11334;36.986;-121.936;2023-12-20T11:27:20;100149.31;;;16.14;100.00
22333;BME280;11334;36.986;-121.936;2023-12-20T11:29:53;100136.75;;;16.15;100.00
22333;BME280;11334;36.986;-121.936;2023-12-20T11:34:58;100133.44;;;16.07;100.00
22333;BME280;11334;36.986;-121.936;2023-12-20T11:37:34;100133.84;;;16.10;100.00
22333;BME280;11334;36.986;-121.936;2023-12-20T11:42:39;100136.31;;;16.05;100.00
22333;BME280;11334;36.986;-121.936;2023-12-20T11:45:09;100144.56;;;16.04;100.00
22333;BME280;11334;36.986;-121.936;2023-12-20T11:47:36;100151.53;;;16.05;100.00
22333;BME280;11334;36.986;-121.936;2023-12-20T11:50:02;100135.09;;;16.01;100.00
22333;BME280;11334;36.986;-121.936;2023-12-20T11:52:30;100146.59;;;16.02;100.00
22333;BME280;11334;36.986;-121.936;2023-12-20T11:54:57;100147.22;;;16.04;100.00
22333;BME280;11334;36.986;-121.936;2023-12-20T11:57:24;100149.47;;;16.07;100.00
22333;BME280;11334;36.986;-121.936;2023-12-20T11:59:50;100142.69;;;16.11;100.00
22333;BME280;11334;36.986;-121.936;2023-12-20T12:02:17;100141.25;;;16.08;100.00
22333;BME280;11334;36.986;-121.936;2023-12-20T12:04:43;100130.97;;;16.05;100.00
22333;BME280;11334;36.986;-121.936;2023-12-20T12:07:09;100136.31;;;16.05;100.00
22333;BME280;11334;36.986;-121.936;2023-12-20T12:09:35;100135.09;;;16.08;100.00
22333;BME280;11334;36.986;-121.936;2023-12-20T12:12:02;100126.88;;;16.09;100.00
22333;BME280;11334;36.986;-121.936;2023-12-20T12:14:28;100130.34;;;16.10;100.00
22333;BME280;11334;36.986;-121.936;2023-12-20T12:16:55;100133.44;;;16.07;100.00
22333;BME280;11334;36.986;-121.936;2023-12-20T12:19:22;100129.34;;;16.04;100.00